LTBU/TEQ METAR and TAF weather

Enter ICAO airport designator
Station Type Date Time Source
LTBU METAR 2023/02/04 01:20 UTC NOAA

LTBU 040120Z 20003KT 170V230 9999 FEW035 BKN080 01/M01 Q1016


Station Type Date Time Source
LTBU Decoded METAR 2023/02/04 01:20 UTC NOAA

Corlu, Turkey (LTBU) 41-08N 027-55E
Feb 03, 2023 - 08:20 PM EST / 2023.02.04 0120 UTC
Wind: from the SSW (200 degrees) at 3 MPH (3 KT) (direction variable):0
Visibility: greater than 7 mile(s):0
Sky conditions: mostly cloudy
Temperature: 33 F (1 C)
Dew Point: 30 F (-1 C)
Relative Humidity: 86%
Pressure (altimeter): 30.00 in. Hg (1016 hPa)
ob: LTBU 040120Z 20003KT 170V230 9999 FEW035 BKN080 01/M01 Q1016
cycle: 1

Station Type Date Time Source
LTBU TAF 2023/02/03 18:03 UTC NOAA

TAF TAF LTBU 031640Z 0318/0418 VRB02KT 9999 SCT035
BECMG 0318/0321 CAVOK
BECMG 0400/0403 SCT035 BKN100
BECMG 0404/0407 22012KT -SHRA BKN025 BKN080
TEMPO 0409/0413 -SHRASN
BECMG 0414/0417 SCT035 BKN100

Example: see airport list